createdAt,value
2023-04-08T00:00:07.979Z,1020.6
2023-04-08T00:05:08.096Z,1020.61
2023-04-08T00:10:08.174Z,1020.68
2023-04-08T00:15:08.235Z,1020.73
2023-04-08T00:20:08.349Z,1020.72
2023-04-08T00:25:08.412Z,1020.68
2023-04-08T00:30:08.447Z,1020.75
2023-04-08T00:35:08.473Z,1020.81
2023-04-08T00:40:08.525Z,1020.83
2023-04-08T00:45:08.681Z,1020.88
2023-04-08T00:50:08.713Z,1020.87
2023-04-08T00:55:08.782Z,1020.93
2023-04-08T01:00:08.872Z,1021.02
2023-04-08T01:05:08.882Z,1020.99
2023-04-08T01:10:08.923Z,1021.04
2023-04-08T01:15:09.015Z,1021.08
2023-04-08T01:20:08.111Z,1021.08
2023-04-08T01:25:08.132Z,1021.06
2023-04-08T01:30:08.209Z,1021.06
2023-04-08T01:35:08.290Z,1020.99
2023-04-08T01:40:08.383Z,1020.99
2023-04-08T01:45:08.402Z,1021.03
2023-04-08T01:50:08.487Z,1021.03
2023-04-08T01:55:08.554Z,1021.07
2023-04-08T02:00:08.589Z,1021.09
2023-04-08T02:05:08.657Z,1021.09
2023-04-08T02:10:08.729Z,1021.09
2023-04-08T02:15:08.756Z,1021.04
2023-04-08T02:20:08.792Z,1021.06
2023-04-08T02:25:08.818Z,1021.06
2023-04-08T02:30:08.869Z,1021.06
2023-04-08T02:35:08.919Z,1021.18
2023-04-08T02:40:08.937Z,1021.14
2023-04-08T02:45:08.013Z,1021.2
2023-04-08T02:50:08.034Z,1021.26
2023-04-08T02:55:08.055Z,1021.17
2023-04-08T03:00:08.095Z,1021.11
2023-04-08T03:05:08.204Z,1021.14
2023-04-08T03:10:08.274Z,1021.14
2023-04-08T03:15:08.346Z,1021.22
2023-04-08T03:20:08.388Z,1021.47
2023-04-08T03:25:08.468Z,1021.4
2023-04-08T03:30:08.592Z,1021.45
2023-04-08T03:35:08.661Z,1021.31
2023-04-08T03:40:08.723Z,1021.38
2023-04-08T03:45:08.777Z,1021.42
2023-04-08T03:50:08.868Z,1021.4
2023-04-08T03:55:08.882Z,1021.46
2023-04-08T04:00:08.887Z,1021.5
2023-04-08T04:05:03.233Z,1021.51
2023-04-08T04:10:02.601Z,1021.58
2023-04-08T04:15:03.029Z,1021.58
2023-04-08T04:20:02.372Z,1021.58
2023-04-08T04:25:02.707Z,1021.77
2023-04-08T04:30:02.984Z,1021.76
2023-04-08T04:35:02.118Z,1021.76
2023-04-08T04:40:02.307Z,1021.88
2023-04-08T04:45:02.537Z,1021.94
2023-04-08T04:50:02.778Z,1021.99
2023-04-08T04:55:03.081Z,1021.98
2023-04-08T05:00:04.002Z,1022.0
2023-04-08T05:05:02.722Z,1021.97
2023-04-08T05:10:02.995Z,1021.99
2023-04-08T05:15:02.251Z,1022.04
2023-04-08T05:20:02.535Z,1022.1
2023-04-08T05:25:02.795Z,1022.07
2023-04-08T05:30:03.015Z,1022.07
2023-04-08T05:35:02.323Z,1022.27
2023-04-08T05:40:02.620Z,1022.28
2023-04-08T05:45:03.021Z,1022.28
2023-04-08T05:50:02.212Z,1022.36
2023-04-08T05:55:02.701Z,1022.32
2023-04-08T06:00:02.932Z,1022.44
2023-04-08T06:05:02.215Z,1022.52
2023-04-08T06:10:02.597Z,1022.62
2023-04-08T06:15:02.869Z,1022.6
2023-04-08T06:20:03.208Z,1022.59
2023-04-08T06:25:02.685Z,1022.63
2023-04-08T06:30:02.877Z,1022.71
2023-04-08T06:35:03.435Z,1022.74
2023-04-08T06:40:02.786Z,1022.74
2023-04-08T06:45:03.122Z,1022.94
2023-04-08T06:50:02.319Z,1022.93
2023-04-08T06:55:02.598Z,1022.98
2023-04-08T07:00:02.811Z,1022.99
2023-04-08T07:05:03.088Z,1023.06
2023-04-08T07:10:02.432Z,1023.23
2023-04-08T07:15:02.687Z,1023.22
2023-04-08T07:20:03.138Z,1023.29
2023-04-08T07:25:02.303Z,1023.26
2023-04-08T07:30:02.560Z,1023.3
2023-04-08T07:35:02.728Z,1023.41
2023-04-08T07:40:02.918Z,1023.41
2023-04-08T07:45:03.058Z,1023.41
2023-04-08T07:50:02.205Z,1023.43
2023-04-08T07:55:02.410Z,1023.51
2023-04-08T08:00:02.796Z,1023.6
2023-04-08T08:05:03.164Z,1023.56
2023-04-08T08:10:02.393Z,1023.57
2023-04-08T08:15:02.616Z,1023.58
2023-04-08T08:20:02.904Z,1023.58
2023-04-08T08:25:03.023Z,1023.7
2023-04-08T08:30:02.272Z,1023.8
2023-04-08T08:35:02.440Z,1023.8
2023-04-08T08:40:02.654Z,1023.89
2023-04-08T08:45:02.851Z,1023.9
2023-04-08T08:50:03.032Z,1023.79
2023-04-08T08:55:03.322Z,1023.8
2023-04-08T09:00:02.319Z,1023.83
2023-04-08T09:05:02.665Z,1023.83
2023-04-08T09:10:02.928Z,1023.85
2023-04-08T09:15:02.255Z,1023.99
2023-04-08T09:20:02.338Z,1023.99
2023-04-08T09:25:02.524Z,1023.88
2023-04-08T09:30:02.726Z,1023.95
2023-04-08T09:35:03.940Z,1024.03
2023-04-08T09:40:02.910Z,1024.04
2023-04-08T09:45:03.021Z,1024.05
2023-04-08T09:50:02.160Z,1024.09
2023-04-08T09:55:02.410Z,1024.04
2023-04-08T10:00:02.513Z,1024.09
2023-04-08T10:05:02.815Z,1024.06
2023-04-08T10:10:03.242Z,1024.03
2023-04-08T10:15:02.437Z,1024.02
2023-04-08T10:20:02.674Z,1023.99
2023-04-08T10:25:02.898Z,1024.06
2023-04-08T10:30:02.992Z,1024.09
2023-04-08T10:35:02.119Z,1024.16
2023-04-08T10:40:02.241Z,1024.19
2023-04-08T10:45:02.418Z,1024.13
2023-04-08T10:50:02.543Z,1024.09
2023-04-08T10:55:02.704Z,1024.08
2023-04-08T11:00:02.900Z,1024.07
2023-04-08T11:05:03.033Z,1024.0
2023-04-08T11:10:02.234Z,1023.98
2023-04-08T11:15:02.413Z,1023.87
2023-04-08T11:20:02.569Z,1023.98
2023-04-08T11:25:02.763Z,1024.0
2023-04-08T11:30:02.886Z,1024.0
2023-04-08T11:35:03.046Z,1024.0
2023-04-08T11:40:02.260Z,1023.98
2023-04-08T11:45:02.392Z,1023.97
2023-04-08T11:50:02.576Z,1023.84
2023-04-08T11:55:02.793Z,1023.84
2023-04-08T12:00:03.028Z,1024.01
2023-04-08T12:05:02.296Z,1024.03
2023-04-08T12:10:02.515Z,1024.12
2023-04-08T12:15:02.692Z,1024.02
2023-04-08T12:20:02.827Z,1024.05
2023-04-08T12:25:02.999Z,1024.08
2023-04-08T12:30:02.172Z,1024.02
2023-04-08T12:35:02.446Z,1024.05
2023-04-08T12:40:02.805Z,1024.08
2023-04-08T12:45:03.137Z,1024.01
2023-04-08T12:50:02.442Z,1024.0
2023-04-08T12:55:02.605Z,1024.06
2023-04-08T13:00:02.839Z,1024.05
2023-04-08T13:05:03.165Z,1024.08
2023-04-08T13:10:02.409Z,1023.99
2023-04-08T13:15:02.689Z,1023.97
2023-04-08T13:20:02.980Z,1024.0
2023-04-08T13:25:02.243Z,1024.0
2023-04-08T13:30:02.445Z,1023.92
2023-04-08T13:35:02.597Z,1023.84
2023-04-08T13:40:02.752Z,1023.77
2023-04-08T13:45:02.969Z,1023.8
2023-04-08T13:50:02.074Z,1023.73
2023-04-08T13:55:02.278Z,1023.72
2023-04-08T14:00:02.498Z,1023.72
2023-04-08T14:05:02.648Z,1023.72
2023-04-08T14:10:02.868Z,1023.72
2023-04-08T14:15:03.025Z,1023.79
2023-04-08T14:20:02.275Z,1023.71
2023-04-08T14:25:02.438Z,1023.69
2023-04-08T14:30:02.604Z,1023.69
2023-04-08T14:35:02.813Z,1023.64
2023-04-08T14:40:02.961Z,1023.64
2023-04-08T14:45:02.419Z,1023.62
2023-04-08T14:50:02.640Z,1023.68
2023-04-08T14:55:03.832Z,1023.63
2023-04-08T15:00:02.953Z,1023.63
2023-04-08T15:05:02.179Z,1023.66
2023-04-08T15:10:02.371Z,1023.65
2023-04-08T15:15:02.604Z,1023.64
2023-04-08T15:20:02.896Z,1023.53
2023-04-08T15:25:03.003Z,1023.54
2023-04-08T15:30:02.349Z,1023.53
2023-04-08T15:35:02.620Z,1023.64
2023-04-08T15:40:02.915Z,1023.64
2023-04-08T15:45:03.041Z,1023.61
2023-04-08T15:50:02.351Z,1023.63
2023-04-08T15:55:02.558Z,1023.6
2023-04-08T16:00:02.939Z,1023.6
2023-04-08T16:05:02.089Z,1023.73
2023-04-08T16:10:02.389Z,1023.68
2023-04-08T16:15:02.577Z,1023.67
2023-04-08T16:20:02.806Z,1023.67
2023-04-08T16:25:03.195Z,1023.7
2023-04-08T16:30:02.334Z,1023.66
2023-04-08T16:35:02.525Z,1023.75
2023-04-08T16:40:03.084Z,1023.77
2023-04-08T16:45:02.252Z,1023.76
2023-04-08T16:50:02.417Z,1023.76
2023-04-08T16:55:02.558Z,1023.79
2023-04-08T17:00:02.826Z,1023.79
2023-04-08T17:05:03.039Z,1023.78
2023-04-08T17:10:02.258Z,1023.77
2023-04-08T17:15:02.747Z,1023.92
2023-04-08T17:20:02.921Z,1023.92
2023-04-08T17:25:03.180Z,1023.93
2023-04-08T17:30:02.354Z,1023.88
2023-04-08T17:35:02.609Z,1023.98
2023-04-08T17:40:02.971Z,1023.99
2023-04-08T17:45:02.226Z,1024.01
2023-04-08T17:50:02.536Z,1023.99
2023-04-08T17:55:02.710Z,1024.0
2023-04-08T18:00:02.857Z,1024.05
2023-04-08T18:05:02.999Z,1024.05
2023-04-08T18:10:02.264Z,1024.07
2023-04-08T18:15:02.476Z,1024.14
2023-04-08T18:20:02.777Z,1024.19
2023-04-08T18:25:02.911Z,1024.2
2023-04-08T18:30:03.082Z,1024.27
2023-04-08T18:35:02.261Z,1024.32
2023-04-08T18:40:02.536Z,1024.32
2023-04-08T18:45:02.769Z,1024.3
2023-04-08T18:50:03.048Z,1024.31
2023-04-08T18:55:02.240Z,1024.36
2023-04-08T19:00:02.600Z,1024.36
2023-04-08T19:05:02.777Z,1024.44
2023-04-08T19:10:02.923Z,1024.51
2023-04-08T19:15:02.212Z,1024.51
2023-04-08T19:20:02.570Z,1024.54
2023-04-08T19:25:02.870Z,1024.55
2023-04-08T19:30:03.077Z,1024.62
2023-04-08T19:35:02.268Z,1024.73
2023-04-08T19:40:02.811Z,1024.8
2023-04-08T19:45:02.975Z,1024.8
2023-04-08T19:50:02.164Z,1024.85
2023-04-08T19:55:02.420Z,1024.83
2023-04-08T20:00:02.738Z,1024.86
2023-04-08T20:05:02.839Z,1024.82
2023-04-08T20:10:02.986Z,1024.82
2023-04-08T20:15:02.091Z,1024.82
2023-04-08T20:20:02.342Z,1024.87
2023-04-08T20:25:02.458Z,1024.9
2023-04-08T20:30:02.621Z,1024.83
2023-04-08T20:35:02.737Z,1024.79
2023-04-08T20:40:02.926Z,1024.83
2023-04-08T20:45:02.144Z,1024.87
2023-04-08T20:50:02.356Z,1024.84
2023-04-08T20:55:02.544Z,1024.82
2023-04-08T21:00:02.812Z,1024.68
2023-04-08T21:05:03.046Z,1024.71
2023-04-08T21:10:02.257Z,1024.67
2023-04-08T21:15:02.417Z,1024.67
2023-04-08T21:20:02.524Z,1024.67
2023-04-08T21:25:02.665Z,1024.67
2023-04-08T21:30:03.165Z,1024.64
2023-04-08T21:35:02.307Z,1024.64
2023-04-08T21:40:02.575Z,1024.63
2023-04-08T21:45:02.721Z,1024.61
2023-04-08T21:50:02.888Z,1024.56
2023-04-08T21:55:03.178Z,1024.62
2023-04-08T22:00:02.431Z,1024.68
2023-04-08T22:05:15.473Z,1024.61
2023-04-08T22:10:08.894Z,1024.59
2023-04-08T22:15:08.925Z,1024.59
2023-04-08T22:20:08.969Z,1024.59
2023-04-08T22:25:08.130Z,1024.67
2023-04-08T22:30:08.185Z,1024.73
2023-04-08T22:35:08.203Z,1024.65
2023-04-08T22:40:08.243Z,1024.65
2023-04-08T22:45:08.299Z,1024.65
2023-04-08T22:50:08.412Z,1024.73
2023-04-08T22:55:08.446Z,1024.7
2023-04-08T23:01:12.667Z,1024.72
2023-04-08T23:05:08.740Z,1024.73
2023-04-08T23:10:08.512Z,1024.66
2023-04-08T23:15:08.617Z,1024.63
2023-04-08T23:20:08.775Z,1024.63
2023-04-08T23:25:08.802Z,1024.69
2023-04-08T23:30:08.862Z,1024.68
2023-04-08T23:35:08.932Z,1024.6
2023-04-08T23:40:07.953Z,1024.64
2023-04-08T23:45:08.014Z,1024.59
2023-04-08T23:50:08.115Z,1024.6
2023-04-08T23:55:08.224Z,1024.67
